Main page
METAR-TAF:

METAR-TAF

Airports :

Palma de Mallorca Airport

Palma de Mallorca, Spain

latitude: 39-33N, longitude: 002-44E, elevation: 4 m

Current weather observation

The report was made 29 minutes ago, at 06:30 UTC
Wind 1 kt from variable directions
Temperature 23°C
Humidity 69%
Pressure 1021 hPa
Visibility 10 km or more
no clouds below 1500 m and no cumulonimbus

METAR: LEPA 190630Z VRB01KT CAVOK 23/17 Q1021 NOSIG

Time: 08:59 (06:59 UTC)

Forecast

The report was made 1 hour and 59 minutes ago, at 05:00 UTC
Forecast valid from 19 at 06 UTC to 20 at 06 UTC
Wind 4 kt from variable directions
Visibility 10 km or more
Few clouds at a height of 3000 ft
Becoming
from 19 at 08 UTC to 19 at 10 UTC
Wind 10 kt from the North/Northeast
Becoming
from 19 at 18 UTC to 19 at 20 UTC
Wind 3 kt from variable directions

TAF: LEPA 190500Z 1906/2006 VRB04KT 9999 FEW030 TX30/1912Z TN16/2006Z BECMG 1908/1910 03010KT BECMG 1918/1920 VRB03KT

Weather observations and forecasts of more than 4000 airports (METAR and TAF reports).

The available stations are represented by yellow and red dots on the map.

Hover mouse over dot to see the name of the station.

Then click to see weather observations and forecasts.

To change the map : click on the green buttons with a black cross to zoom in, on the green button with a dash to zoom out, or on the green arrows for adjacent maps.


METAR-TAF: